createdAt,value
2022-12-25T00:00:06.724Z,7.07
2022-12-25T00:02:34.265Z,6.78
2022-12-25T00:05:01.845Z,6.65
2022-12-25T00:07:29.415Z,7.30
2022-12-25T00:09:57.034Z,6.25
2022-12-25T00:12:24.829Z,6.43
2022-12-25T00:14:52.238Z,6.45
2022-12-25T00:17:19.783Z,6.90
2022-12-25T00:19:47.891Z,6.35
2022-12-25T00:22:15.327Z,6.32
2022-12-25T00:24:44.679Z,6.70
2022-12-25T00:27:18.865Z,6.60
2022-12-25T00:30:04.874Z,6.25
2022-12-25T00:32:37.812Z,6.50
2022-12-25T00:35:21.608Z,6.88
2022-12-25T00:38:02.031Z,6.75
2022-12-25T00:41:01.873Z,6.25
2022-12-25T00:43:39.485Z,6.22
2022-12-25T00:46:33.401Z,6.43
2022-12-25T00:49:02.732Z,7.38
2022-12-25T00:51:30.718Z,7.35
2022-12-25T00:54:00.572Z,6.93
2022-12-25T00:56:28.760Z,7.32
2022-12-25T00:58:56.474Z,6.40
2022-12-25T01:01:24.573Z,7.10
2022-12-25T01:03:52.786Z,7.10
2022-12-25T01:06:20.465Z,6.90
2022-12-25T01:09:06.277Z,6.53
2022-12-25T01:11:38.917Z,6.72
2022-12-25T01:14:12.742Z,6.82
2022-12-25T01:16:42.271Z,7.53
2022-12-25T01:19:11.786Z,7.20
2022-12-25T01:21:59.575Z,7.30
2022-12-25T01:24:59.581Z,7.10
2022-12-25T01:27:50.313Z,7.93
2022-12-25T01:33:11.998Z,7.00
2022-12-25T01:46:17.944Z,7.18
2022-12-25T01:52:45.291Z,7.60
2022-12-25T01:59:00.780Z,6.82
2022-12-25T02:01:57.813Z,6.93
2022-12-25T02:08:35.428Z,6.25
2022-12-25T02:20:58.022Z,5.85
2022-12-25T02:30:34.430Z,6.10
2022-12-25T02:47:20.260Z,6.20
2022-12-25T02:50:23.755Z,5.80
2022-12-25T02:57:18.489Z,5.65
2022-12-25T03:07:57.573Z,5.10
2022-12-25T03:10:53.004Z,5.18
2022-12-25T03:13:47.527Z,5.07
2022-12-25T03:26:08.765Z,5.57
2022-12-25T03:28:38.332Z,5.72
2022-12-25T03:31:53.974Z,5.15
2022-12-25T03:34:55.227Z,5.40
2022-12-25T03:38:12.670Z,4.78
2022-12-25T03:41:12.534Z,5.00
2022-12-25T03:44:12.535Z,5.60
2022-12-25T03:47:06.385Z,5.28
2022-12-25T03:50:10.167Z,5.57
2022-12-25T03:52:58.356Z,4.97
2022-12-25T03:55:45.184Z,5.55
2022-12-25T03:58:43.024Z,5.25
2022-12-25T04:01:28.845Z,4.63
2022-12-25T04:04:14.960Z,4.32
2022-12-25T04:07:01.117Z,4.80
2022-12-25T04:09:47.429Z,4.43
2022-12-25T04:12:53.229Z,4.55
2022-12-25T04:15:49.898Z,4.47
2022-12-25T04:18:35.875Z,4.25
2022-12-25T04:21:21.704Z,4.65
2022-12-25T04:24:07.553Z,4.63
2022-12-25T04:26:53.389Z,3.92
2022-12-25T04:29:39.316Z,4.53
2022-12-25T04:32:25.089Z,4.35
2022-12-25T04:35:11.871Z,3.45
2022-12-25T04:37:39.501Z,3.88
2022-12-25T04:40:07.501Z,3.80
2022-12-25T04:42:37.385Z,3.33
2022-12-25T04:45:05.160Z,3.60
2022-12-25T04:47:33.547Z,3.55
2022-12-25T04:50:03.291Z,3.63
2022-12-25T04:52:40.212Z,4.90
2022-12-25T04:55:09.610Z,4.75
2022-12-25T04:57:37.593Z,3.85
2022-12-25T05:00:08.048Z,3.65
2022-12-25T05:02:35.931Z,6.80
2022-12-25T05:05:03.626Z,5.10
2022-12-25T05:07:31.235Z,5.05
2022-12-25T05:09:58.634Z,4.57
2022-12-25T05:12:26.093Z,3.95
2022-12-25T05:14:53.405Z,3.90
2022-12-25T05:17:20.863Z,4.28
2022-12-25T05:19:48.295Z,4.30
2022-12-25T05:22:15.677Z,4.05
2022-12-25T05:24:43.301Z,4.10
2022-12-25T05:27:11.465Z,3.83
2022-12-25T05:29:43.758Z,3.67
2022-12-25T05:32:12.963Z,3.70
2022-12-25T05:34:40.661Z,4.72
2022-12-25T05:37:08.065Z,4.20
2022-12-25T05:39:36.241Z,4.80
2022-12-25T05:42:03.878Z,4.32
2022-12-25T05:44:31.249Z,4.25
2022-12-25T05:46:58.737Z,4.78
2022-12-25T05:49:26.294Z,4.43
2022-12-25T05:51:53.832Z,4.13
2022-12-25T05:54:21.384Z,4.35
2022-12-25T05:56:48.878Z,4.25
2022-12-25T05:59:16.439Z,4.75
2022-12-25T06:01:43.951Z,4.63
2022-12-25T06:04:12.995Z,5.38
2022-12-25T06:06:41.369Z,5.20
2022-12-25T06:09:09.912Z,5.20
2022-12-25T06:11:37.428Z,4.60
2022-12-25T06:14:05.163Z,4.55
2022-12-25T06:16:37.937Z,4.85
2022-12-25T06:19:06.722Z,4.50
2022-12-25T06:21:34.228Z,4.95
2022-12-25T06:24:02.722Z,4.78
2022-12-25T06:26:30.294Z,4.30
2022-12-25T06:28:57.736Z,4.60
2022-12-25T06:31:25.243Z,4.28
2022-12-25T06:33:52.849Z,4.82
2022-12-25T06:36:26.039Z,4.60
2022-12-25T06:38:54.995Z,5.75
2022-12-25T06:41:24.772Z,4.97
2022-12-25T06:43:58.148Z,5.03
2022-12-25T06:46:28.952Z,4.55
2022-12-25T06:48:58.914Z,5.07
2022-12-25T06:51:29.497Z,5.50
2022-12-25T06:53:58.039Z,4.50
2022-12-25T06:56:27.960Z,5.00
2022-12-25T06:58:59.458Z,5.15
2022-12-25T07:01:39.008Z,4.70
2022-12-25T07:04:42.028Z,5.93
2022-12-25T07:07:10.142Z,4.68
2022-12-25T07:09:39.439Z,4.95
2022-12-25T07:12:21.980Z,12.48
2022-12-25T07:14:55.054Z,25.73
2022-12-25T07:17:25.855Z,13.68
2022-12-25T07:20:01.350Z,7.75
2022-12-25T07:22:38.584Z,5.93
2022-12-25T07:25:10.073Z,8.75
2022-12-25T07:27:47.873Z,12.68
2022-12-25T07:30:23.336Z,35.50
2022-12-25T07:32:54.002Z,29.60
2022-12-25T07:35:27.036Z,31.52
2022-12-25T07:38:01.921Z,20.48
2022-12-25T07:40:37.545Z,13.32
2022-12-25T07:43:05.343Z,13.68
2022-12-25T07:45:35.951Z,11.60
2022-12-25T07:48:13.363Z,94.10
2022-12-25T07:50:43.730Z,34.20
2022-12-25T07:53:11.273Z,82.85
2022-12-25T07:55:38.665Z,47.80
2022-12-25T07:58:07.216Z,61.03
2022-12-25T08:00:34.816Z,38.90
2022-12-25T08:03:02.865Z,34.03
2022-12-25T14:59:23.265Z,17.15
2022-12-25T15:10:58.931Z,5.50
2022-12-25T15:13:57.770Z,3.78
2022-12-25T15:43:57.143Z,3.78
2022-12-25T16:19:56.843Z,73.82
2022-12-25T16:22:27.589Z,67.10
2022-12-25T16:24:55.403Z,36.35
2022-12-25T16:27:22.772Z,23.08
2022-12-25T16:29:50.016Z,18.63
2022-12-25T16:32:17.659Z,22.83
2022-12-25T16:34:44.937Z,32.33
2022-12-25T16:37:12.258Z,30.63
2022-12-25T16:39:39.429Z,21.77
2022-12-25T16:42:07.543Z,21.05
2022-12-25T16:44:37.516Z,19.85
2022-12-25T16:47:04.881Z,27.48
2022-12-25T16:49:32.243Z,41.70
2022-12-25T16:51:59.572Z,56.92
2022-12-25T16:54:26.853Z,37.95
2022-12-25T16:56:54.235Z,30.48
2022-12-25T16:59:22.492Z,25.95
2022-12-25T17:01:49.807Z,21.45
2022-12-25T17:04:17.300Z,19.30
2022-12-25T17:06:44.630Z,17.88
2022-12-25T17:09:12.105Z,16.45
2022-12-25T17:11:39.651Z,17.63
2022-12-25T17:14:07.411Z,17.95
2022-12-25T17:16:36.957Z,16.27
2022-12-25T17:19:13.181Z,15.02
2022-12-25T17:21:40.519Z,16.77
2022-12-25T17:24:08.006Z,15.23
2022-12-25T17:26:35.469Z,15.73
2022-12-25T17:29:03.372Z,16.45
2022-12-25T17:31:31.134Z,20.23
2022-12-25T17:34:01.213Z,20.25
2022-12-25T17:36:28.660Z,18.17
2022-12-25T17:38:56.685Z,14.43
2022-12-25T17:41:23.977Z,13.45
2022-12-25T17:43:51.650Z,13.60
2022-12-25T17:46:24.285Z,31.80
2022-12-25T17:48:52.824Z,28.25
2022-12-25T17:51:22.955Z,18.08
2022-12-25T17:53:53.063Z,17.85
2022-12-25T17:56:21.821Z,12.82
2022-12-25T17:58:55.008Z,13.98
2022-12-25T18:01:25.230Z,32.25
2022-12-25T18:03:52.804Z,18.65
2022-12-25T18:06:22.570Z,16.67
2022-12-25T18:08:50.331Z,17.63
2022-12-25T18:11:23.451Z,15.82
2022-12-25T18:13:52.385Z,21.70
2022-12-25T18:16:22.598Z,20.20
2022-12-25T18:18:52.696Z,15.57
2022-12-25T18:21:22.236Z,15.95
2022-12-25T18:23:50.163Z,19.63
2022-12-25T18:26:17.871Z,26.08
2022-12-25T18:28:45.125Z,62.97
2022-12-25T18:31:15.620Z,59.63
2022-12-25T18:33:44.802Z,65.75
2022-12-25T18:36:23.180Z,31.42
2022-12-25T18:38:52.432Z,14.63
2022-12-25T18:41:23.074Z,14.68
2022-12-25T18:43:56.549Z,18.70
2022-12-25T18:46:27.546Z,18.85
2022-12-25T18:48:57.828Z,14.70
2022-12-25T18:51:31.380Z,12.27
2022-12-25T18:54:04.066Z,12.95
2022-12-25T18:56:31.392Z,10.02
2022-12-25T18:59:01.868Z,17.50
2022-12-25T19:01:29.495Z,19.05
2022-12-25T19:04:04.674Z,15.25
2022-12-25T19:06:40.590Z,13.90
2022-12-25T19:09:14.878Z,15.18
2022-12-25T19:11:46.799Z,18.65
2022-12-25T19:14:14.806Z,30.73
2022-12-25T19:16:42.450Z,53.58
2022-12-25T19:19:13.341Z,17.17
2022-12-25T19:21:41.258Z,30.52
2022-12-25T19:24:08.821Z,13.25
2022-12-25T19:26:36.407Z,11.73
2022-12-25T19:29:03.769Z,12.35
2022-12-25T19:31:31.373Z,22.95
2022-12-25T19:33:58.813Z,136.32
2022-12-25T19:36:26.122Z,55.55
2022-12-25T19:38:54.358Z,39.75
2022-12-25T19:41:22.281Z,23.37
2022-12-25T19:43:52.952Z,29.45
2022-12-25T19:46:26.737Z,40.08
2022-12-25T19:48:55.344Z,67.63
2022-12-25T19:51:31.796Z,189.10
2022-12-25T19:53:59.696Z,136.43
2022-12-25T19:56:28.546Z,75.82
2022-12-25T19:58:59.249Z,72.03
2022-12-25T20:01:29.605Z,45.50
2022-12-25T20:03:58.046Z,43.78
2022-12-25T20:06:33.744Z,58.30
2022-12-25T20:09:04.387Z,56.47
2022-12-25T20:11:33.190Z,368.27
2022-12-25T20:14:00.736Z,662.90
2022-12-25T20:16:28.203Z,211.95
2022-12-25T20:18:56.699Z,206.63
2022-12-25T20:21:24.924Z,65.18
2022-12-25T20:23:53.735Z,55.42
2022-12-25T20:26:23.522Z,35.97
2022-12-25T20:28:50.947Z,24.23
2022-12-25T20:31:21.617Z,41.22
2022-12-25T20:33:50.745Z,29.10
2022-12-25T20:36:19.088Z,35.25
2022-12-25T20:38:46.577Z,44.33
2022-12-25T20:41:31.941Z,42.45
2022-12-25T20:43:59.243Z,17.35
2022-12-25T20:46:27.759Z,15.85
2022-12-25T20:48:55.320Z,13.93
2022-12-25T20:51:25.178Z,14.07
2022-12-25T20:53:53.538Z,14.57
2022-12-25T20:56:23.358Z,18.95
2022-12-25T20:58:59.893Z,18.13
2022-12-25T21:01:32.065Z,15.52
2022-12-25T21:03:59.907Z,14.77
2022-12-25T21:06:31.659Z,13.68
2022-12-25T21:08:59.573Z,17.02
2022-12-25T21:11:27.449Z,20.00
2022-12-25T21:13:54.846Z,17.55
2022-12-25T21:16:23.035Z,15.02
2022-12-25T21:18:52.528Z,12.95
2022-12-25T21:21:21.279Z,27.15
2022-12-25T21:23:48.631Z,33.28
2022-12-25T21:26:27.856Z,39.22
2022-12-25T21:28:57.735Z,34.45
2022-12-25T21:31:25.683Z,58.63
2022-12-25T21:33:57.287Z,38.90
2022-12-25T21:36:31.889Z,22.97
2022-12-25T21:39:02.376Z,29.20
2022-12-25T21:41:32.311Z,20.70
2022-12-25T21:44:00.587Z,66.60
2022-12-25T21:46:28.815Z,113.32
2022-12-25T21:48:56.665Z,188.27
2022-12-25T21:51:46.041Z,130.82
2022-12-25T21:54:15.214Z,112.65
2022-12-25T21:56:45.421Z,30.13
2022-12-25T21:59:21.992Z,32.42
2022-12-25T22:01:51.425Z,31.45
2022-12-25T22:04:24.845Z,11.52
2022-12-25T22:07:11.330Z,12.55
2022-12-25T22:09:39.183Z,10.32
2022-12-25T22:12:31.868Z,12.45
2022-12-25T22:15:07.145Z,13.55
2022-12-25T22:18:01.945Z,10.73
2022-12-25T22:20:37.466Z,12.35
2022-12-25T22:23:05.793Z,11.65
2022-12-25T22:25:33.465Z,11.23
2022-12-25T22:28:00.706Z,12.52
2022-12-25T22:30:29.531Z,10.18
2022-12-25T22:32:59.995Z,10.75
2022-12-25T22:36:00.782Z,11.55
2022-12-25T22:38:28.045Z,15.45
2022-12-25T22:40:55.390Z,17.10
2022-12-25T22:43:36.949Z,11.93
2022-12-25T22:46:10.401Z,13.95
2022-12-25T22:48:37.756Z,11.82
2022-12-25T22:51:06.683Z,11.60
2022-12-25T22:53:34.009Z,20.63
2022-12-25T22:56:01.373Z,18.17
2022-12-25T22:58:28.609Z,21.45
2022-12-25T23:00:56.015Z,20.17
2022-12-25T23:03:23.692Z,19.77
2022-12-25T23:05:57.744Z,17.15
2022-12-25T23:08:25.565Z,17.33
2022-12-25T23:10:52.939Z,13.65
2022-12-25T23:13:39.115Z,14.23
2022-12-25T23:16:06.655Z,10.77
2022-12-25T23:18:52.268Z,10.75
2022-12-25T23:21:37.881Z,10.23
2022-12-25T23:24:24.075Z,10.25
2022-12-25T23:26:51.611Z,10.80
2022-12-25T23:29:37.308Z,9.98
2022-12-25T23:32:07.869Z,9.43
2022-12-25T23:34:37.112Z,9.27
2022-12-25T23:37:05.734Z,9.93
2022-12-25T23:39:33.506Z,9.85
2022-12-25T23:42:02.011Z,9.27
2022-12-25T23:44:29.826Z,9.80
2022-12-25T23:46:57.726Z,10.35
2022-12-25T23:49:26.556Z,9.43
2022-12-25T23:51:55.254Z,9.73
2022-12-25T23:54:26.106Z,9.85
2022-12-25T23:56:54.168Z,10.57
2022-12-25T23:59:21.462Z,10.40
